Baltic Marshall — C4KD2 — position and weather

sailwx.info

Track history (hours):
 
Tides and Currents Weather Stations Pressure Air Temp Water Temp Dewpoint Dewpoint Depression Visibility Wind Speed Wind Dir Waves Ship Positions

Baltic Marshall

Last reported at 2015-Mar-29 16:33 UTC. Time now 2015-Mar-29 22:22 UTC.
Position N 54°18' E 005°08'.

Length 183 m; draft 7.7 m.

Type: Tanker. MMSI: 212118000.

Date/timePositionNaut miles runAvg speedWind from/ knotsBaromVisibWave heightAir tempDewpointWater temp
2015-Mar-29 16:33N 54°18' E 005°08'1414.5
2015-Mar-29 15:33N 54°07' E 004°54'1514.9
2015-Mar-29 14:32N 53°56' E 004°36'11512.8
2015-Mar-29 05:33N 52°06' E 003°39'1010.4
2015-Mar-29 04:33N 52°02' E 003°55'1211.7
2015-Mar-29 03:33N 51°57' E 004°12'7 6.8
2015-Mar-29 02:31N 51°54' E 004°22'0 0.0
2015-Mar-29 01:31N 51°54' E 004°22'0 0.0
2015-Mar-29 00:28N 51°54' E 004°22'0 0.0
2015-Mar-28 23:22N 51°54' E 004°22'0 0.0
2015-Mar-28 22:31N 51°54' E 004°22'0 0.0
2015-Mar-28 21:31N 51°54' E 004°22'0 0.0
2015-Mar-28 20:28N 51°54' E 004°22'0 0.0
2015-Mar-28 19:22N 51°54' E 004°22'0 0.0
2015-Mar-28 18:28N 51°54' E 004°22'0 0.0
2015-Mar-28 17:31N 51°54' E 004°22'0 0.0
2015-Mar-28 16:25N 51°54' E 004°22'0 0.0
2015-Mar-28 11:31N 51°54' E 004°22'0 0.0
2015-Mar-28 10:22N 51°54' E 004°22'0 0.0
2015-Mar-28 09:31N 51°54' E 004°22'0 0.0
2015-Mar-28 08:28N 51°54' E 004°22'0 0.0
2015-Mar-28 07:28N 51°54' E 004°22'0 0.0
2015-Mar-28 06:31N 51°54' E 004°22'0 0.0
2015-Mar-28 05:31N 51°54' E 004°22'0 0.0
2015-Mar-28 04:28N 51°54' E 004°22'0 0.0
2015-Mar-28 03:10N 51°54' E 004°22'0 0.0
2015-Mar-28 02:22N 51°54' E 004°22'0 0.0
2015-Mar-28 01:28N 51°54' E 004°22'0 0.0
2015-Mar-28 00:22N 51°54' E 004°22'0 0.0
2015-Mar-27 23:31N 51°54' E 004°22'0 0.0
2015-Mar-27 22:28N 51°54' E 004°22'0 0.0
2015-Mar-27 21:20N 51°54' E 004°22'1 1.3
2015-Mar-27 20:33N 51°54' E 004°20'1110.7
2015-Mar-27 19:33N 51°59' E 004°05'4 4.5
2015-Mar-27 18:33N 51°56' E 004°11'1 0.9
2015-Mar-27 17:33N 51°55' E 004°12'0 0.0
2015-Mar-27 16:33N 51°55' E 004°12'0 0.0
2015-Mar-27 15:33N 51°55' E 004°12'0 0.0
2015-Mar-27 14:30N 51°55' E 004°12'0 0.0
2015-Mar-27 13:33N 51°55' E 004°12'0 0.0
2015-Mar-27 12:33N 51°55' E 004°12'0 0.0
2015-Mar-27 11:30N 51°55' E 004°12'0 0.0
2015-Mar-27 10:30N 51°55' E 004°12'0 0.0
2015-Mar-27 09:33N 51°55' E 004°12'0 0.0
2015-Mar-27 08:15N 51°55' E 004°12'0 0.0
2015-Mar-27 07:27N 51°55' E 004°12'0 0.0
2015-Mar-27 06:33N 51°55' E 004°12'0 0.0
2015-Mar-27 05:33N 51°55' E 004°12'0 0.0
2015-Mar-27 04:33N 51°55' E 004°12'0 0.0
2015-Mar-27 03:30N 51°55' E 004°12'0 0.0
2015-Mar-27 02:33N 51°55' E 004°12'0 0.0
2015-Mar-27 01:33N 51°55' E 004°12'0 0.0
2015-Mar-27 00:33N 51°55' E 004°12'0 0.0
2015-Mar-26 23:33N 51°55' E 004°12'0 0.0
2015-Mar-26 22:33N 51°55' E 004°12'0 0.0
2015-Mar-26 21:24N 51°55' E 004°12'0 0.0
2015-Mar-26 20:33N 51°55' E 004°12'0 0.0
2015-Mar-26 19:30N 51°55' E 004°12'0 0.0
2015-Mar-26 18:33N 51°55' E 004°12'0 0.0
2015-Mar-26 17:33N 51°55' E 004°12'0 0.0
2015-Mar-26 16:33N 51°55' E 004°12'0 0.0
2015-Mar-26 15:30N 51°55' E 004°12'0 0.0
2015-Mar-26 14:33N 51°55' E 004°12'0 0.0
2015-Mar-26 13:33N 51°55' E 004°12'0 0.0
2015-Mar-26 12:33N 51°55' E 004°12'0 0.0
2015-Mar-26 11:33N 51°55' E 004°12'0 0.0
2015-Mar-26 10:33N 51°55' E 004°12'3 3.4
2015-Mar-26 09:33N 51°58' E 004°08'1110.4
2015-Mar-26 08:33N 51°60' E 003°51'9 8.9
2015-Mar-26 07:29N 52°07' E 003°41'2 1.8
2015-Mar-26 06:22N 52°08' E 003°39'0 0.1
2015-Mar-26 03:22N 52°08' E 003°39'0 0.1
2015-Mar-26 02:28N 52°08' E 003°39'0 0.0
2015-Mar-26 01:28N 52°08' E 003°39'0 0.0
2015-Mar-26 00:31N 52°08' E 003°39'0 0.0
2015-Mar-25 23:31N 52°08' E 003°39'0 0.0
2015-Mar-25 22:33N 52°08' E 003°39'0 0.1
2015-Mar-25 21:31N 52°08' E 003°39'0 0.2
2015-Mar-25 20:31N 52°08' E 003°39'0 0.0
2015-Mar-25 16:19N 52°08' E 003°39'0 0.1
2015-Mar-25 13:28N 52°08' E 003°39'0 0.0
2015-Mar-25 12:19N 52°08' E 003°38'0 0.0
2015-Mar-25 11:25N 52°08' E 003°39'0 0.0
2015-Mar-25 10:31N 52°08' E 003°39'0 0.0
2015-Mar-25 09:16N 52°08' E 003°39'0 0.0
2015-Mar-25 04:15N 52°08' E 003°39'0 0.1
2015-Mar-25 02:22N 52°08' E 003°39'0 0.0
2015-Mar-25 01:34N 52°08' E 003°39'0 0.0
2015-Mar-25 00:31N 52°08' E 003°38'0 0.0
2015-Mar-24 23:31N 52°08' E 003°38'0 0.0
2015-Mar-24 21:16N 52°08' E 003°39'0 0.2
2015-Mar-24 20:09N 52°08' E 003°39'0 0.0
2015-Mar-24 18:28N 52°08' E 003°39'0 0.0
2015-Mar-24 17:13N 52°08' E 003°39'0 0.0
2015-Mar-24 16:31N 52°08' E 003°39'0 0.1
2015-Mar-24 14:06N 52°08' E 003°39'0 0.0
2015-Mar-24 13:34N 52°08' E 003°39'0 0.0
2015-Mar-24 12:22N 52°08' E 003°38'0 0.1
2015-Mar-24 11:28N 52°08' E 003°39'0 0.0
2015-Mar-24 10:25N 52°08' E 003°39'0 0.1
2015-Mar-24 09:31N 52°08' E 003°39'0 0.1
2015-Mar-24 06:25N 52°08' E 003°39'0 0.0
2015-Mar-24 02:07N 52°08' E 003°39'0 0.1
2015-Mar-24 01:31N 52°08' E 003°39'0 0.0
2015-Mar-24 00:30N 52°08' E 003°38'0 0.0
2015-Mar-23 23:31N 52°08' E 003°38'0 0.0
2015-Mar-23 22:34N 52°08' E 003°38'0 0.1
2015-Mar-23 19:28N 52°08' E 003°39'0 0.0
2015-Mar-23 18:34N 52°08' E 003°39'0 0.0
2015-Mar-23 17:07N 52°08' E 003°39'0 0.0
2015-Mar-23 16:04N 52°08' E 003°39'0 0.0
2015-Mar-23 15:31N 52°08' E 003°39'0 0.1
2015-Mar-23 12:31N 52°08' E 003°39'0 0.0
2015-Mar-23 11:24N 52°08' E 003°39'0 0.0
2015-Mar-23 10:25N 52°08' E 003°38'0 0.1
2015-Mar-23 08:31N 52°08' E 003°39'0 0.2
2015-Mar-23 07:31N 52°08' E 003°39'0 0.0
2015-Mar-23 06:31N 52°08' E 003°39'0 0.0
2015-Mar-23 05:19N 52°08' E 003°39'0 0.0
2015-Mar-23 04:28N 52°08' E 003°39'0 0.0
2015-Mar-23 03:19N 52°08' E 003°39'0 0.1
2015-Mar-23 02:07N 52°08' E 003°39'0 0.1
2015-Mar-23 00:25N 52°08' E 003°39'0 0.0
2015-Mar-22 23:34N 52°08' E 003°39'0 0.1
2015-Mar-22 21:28N 52°08' E 003°39'0 0.0
2015-Mar-22 20:34N 52°08' E 003°39'0 0.1
2015-Mar-22 19:19N 52°08' E 003°38'0 0.2
2015-Mar-22 18:22N 52°08' E 003°39'0 0.0
2015-Mar-22 17:25N 52°08' E 003°39'0 0.0
2015-Mar-22 16:28N 52°08' E 003°39'0 0.0
2015-Mar-22 15:25N 52°08' E 003°39'0 0.1
2015-Mar-22 13:07N 52°08' E 003°39'0 0.0
2015-Mar-22 12:28N 52°08' E 003°39'0 0.0
2015-Mar-22 11:19N 52°08' E 003°39'0 0.0
2015-Mar-22 10:25N 52°08' E 003°39'0 0.0
2015-Mar-22 09:34N 52°08' E 003°39'0 0.0
2015-Mar-22 08:31N 52°08' E 003°39'0 0.0
2015-Mar-22 07:31N 52°08' E 003°39'0 0.1
2015-Mar-22 06:16N 52°08' E 003°39'0 0.0
2015-Mar-22 03:31N 52°08' E 003°39'0 0.1
2015-Mar-22 02:19N 52°08' E 003°39'0 0.2
2015-Mar-22 00:31N 52°08' E 003°39'0 0.0
2015-Mar-21 23:34N 52°08' E 003°39'0 0.0
2015-Mar-21 21:13N 52°08' E 003°39'0 0.0
2015-Mar-21 20:16N 52°08' E 003°39'1 1.0
2015-Mar-21 19:33N 52°09' E 003°38'125 8.9
2015-Mar-21 05:33N 54°05' E 004°57'1212.3
2015-Mar-21 04:33N 54°06' E 005°17'1312.9
2015-Mar-21 03:33N 54°08' E 005°39'1413.5
2015-Mar-21 02:30N 54°10' E 006°03'3712.6
2015-Mar-20 23:33N 54°12' E 007°06'1111.3
2015-Mar-20 22:33N 54°12' E 007°25'1110.5
2015-Mar-20 21:33N 54°09' E 007°43'1111.1
2015-Mar-20 20:33N 54°03' E 007°59'11 9.9
2015-Mar-20 19:27N 54°00' E 008°17'1112.6
2015-Mar-20 18:33N 53°58' E 008°35'1313.5
2015-Mar-20 17:33N 53°51' E 008°55'1313.0
2015-Mar-20 16:33N 53°52' E 009°16'1413.7
2015-Mar-20 15:33N 53°41' E 009°30'1111.1
2015-Mar-20 14:33N 53°34' E 009°44'8 7.6
2015-Mar-20 13:33N 53°31' E 009°56'1 1.3
2015-Mar-20 12:33N 53°30' E 009°58'0 0.0
2015-Mar-20 11:33N 53°30' E 009°58'0 0.0
2015-Mar-20 10:33N 53°30' E 009°58'0 0.0
2015-Mar-20 09:33N 53°30' E 009°58'0 0.0
2015-Mar-20 08:33N 53°30' E 009°58'0 0.0
2015-Mar-20 07:33N 53°30' E 009°58'0 0.0
2015-Mar-20 06:32N 53°30' E 009°58'0 0.1
2015-Mar-20 05:32N 53°30' E 009°58'0 0.1
2015-Mar-20 04:33N 53°30' E 009°58'0 0.0
2015-Mar-20 03:33N 53°30' E 009°58'0 0.0
2015-Mar-20 02:33N 53°30' E 009°58'0 0.0
2015-Mar-20 01:33N 53°30' E 009°58'0 0.0
2015-Mar-20 00:33N 53°30' E 009°58'0 0.0
2015-Mar-19 23:33N 53°30' E 009°58'0 0.0
2015-Mar-19 22:33N 53°30' E 009°58'0 0.0
2015-Mar-19 21:33N 53°30' E 009°58'0 0.0
2015-Mar-19 20:33N 53°30' E 009°58'0 0.0
2015-Mar-19 19:33N 53°30' E 009°58'0 0.0
2015-Mar-19 18:33N 53°30' E 009°58'0 0.0
2015-Mar-19 17:33N 53°30' E 009°58'0 0.0
2015-Mar-19 16:33N 53°30' E 009°58'  
Track history (hours):
 
Tides and Currents Weather Stations Pressure Air Temp Water Temp Dewpoint Dewpoint Depression Visibility Wind Speed Wind Dir Waves Ship Positions

Baltic Marshall

Last reported at 2015-Mar-29 16:33 UTC. Time now 2015-Mar-29 22:22 UTC.
Position N 54°18' E 005°08'.

Length 183 m; draft 7.7 m.

Type: Tanker. MMSI: 212118000.

Date/timePositionNaut miles runAvg speedWind from/ knotsBaromVisibWave heightAir tempDewpointWater temp
2015-Mar-29 16:33N 54°18' E 005°08'1414.5
2015-Mar-29 15:33N 54°07' E 004°54'1514.9
2015-Mar-29 14:32N 53°56' E 004°36'11512.8
2015-Mar-29 05:33N 52°06' E 003°39'1010.4
2015-Mar-29 04:33N 52°02' E 003°55'1211.7
2015-Mar-29 03:33N 51°57' E 004°12'7 6.8
2015-Mar-29 02:31N 51°54' E 004°22'0 0.0
2015-Mar-29 01:31N 51°54' E 004°22'0 0.0
2015-Mar-29 00:28N 51°54' E 004°22'0 0.0
2015-Mar-28 23:22N 51°54' E 004°22'0 0.0
2015-Mar-28 22:31N 51°54' E 004°22'0 0.0
2015-Mar-28 21:31N 51°54' E 004°22'0 0.0
2015-Mar-28 20:28N 51°54' E 004°22'0 0.0
2015-Mar-28 19:22N 51°54' E 004°22'0 0.0
2015-Mar-28 18:28N 51°54' E 004°22'0 0.0
2015-Mar-28 17:31N 51°54' E 004°22'0 0.0
2015-Mar-28 16:25N 51°54' E 004°22'0 0.0
2015-Mar-28 11:31N 51°54' E 004°22'0 0.0
2015-Mar-28 10:22N 51°54' E 004°22'0 0.0
2015-Mar-28 09:31N 51°54' E 004°22'0 0.0
2015-Mar-28 08:28N 51°54' E 004°22'0 0.0
2015-Mar-28 07:28N 51°54' E 004°22'0 0.0
2015-Mar-28 06:31N 51°54' E 004°22'0 0.0
2015-Mar-28 05:31N 51°54' E 004°22'0 0.0
2015-Mar-28 04:28N 51°54' E 004°22'0 0.0
2015-Mar-28 03:10N 51°54' E 004°22'0 0.0
2015-Mar-28 02:22N 51°54' E 004°22'0 0.0
2015-Mar-28 01:28N 51°54' E 004°22'0 0.0
2015-Mar-28 00:22N 51°54' E 004°22'0 0.0
2015-Mar-27 23:31N 51°54' E 004°22'0 0.0
2015-Mar-27 22:28N 51°54' E 004°22'0 0.0
2015-Mar-27 21:20N 51°54' E 004°22'1 1.3
2015-Mar-27 20:33N 51°54' E 004°20'1110.7
2015-Mar-27 19:33N 51°59' E 004°05'4 4.5
2015-Mar-27 18:33N 51°56' E 004°11'1 0.9
2015-Mar-27 17:33N 51°55' E 004°12'0 0.0
2015-Mar-27 16:33N 51°55' E 004°12'0 0.0
2015-Mar-27 15:33N 51°55' E 004°12'0 0.0
2015-Mar-27 14:30N 51°55' E 004°12'0 0.0
2015-Mar-27 13:33N 51°55' E 004°12'0 0.0
2015-Mar-27 12:33N 51°55' E 004°12'0 0.0
2015-Mar-27 11:30N 51°55' E 004°12'0 0.0
2015-Mar-27 10:30N 51°55' E 004°12'0 0.0
2015-Mar-27 09:33N 51°55' E 004°12'0 0.0
2015-Mar-27 08:15N 51°55' E 004°12'0 0.0
2015-Mar-27 07:27N 51°55' E 004°12'0 0.0
2015-Mar-27 06:33N 51°55' E 004°12'0 0.0
2015-Mar-27 05:33N 51°55' E 004°12'0 0.0
2015-Mar-27 04:33N 51°55' E 004°12'0 0.0
2015-Mar-27 03:30N 51°55' E 004°12'0 0.0
2015-Mar-27 02:33N 51°55' E 004°12'0 0.0
2015-Mar-27 01:33N 51°55' E 004°12'0 0.0
2015-Mar-27 00:33N 51°55' E 004°12'0 0.0
2015-Mar-26 23:33N 51°55' E 004°12'0 0.0
2015-Mar-26 22:33N 51°55' E 004°12'0 0.0
2015-Mar-26 21:24N 51°55' E 004°12'0 0.0
2015-Mar-26 20:33N 51°55' E 004°12'0 0.0
2015-Mar-26 19:30N 51°55' E 004°12'0 0.0
2015-Mar-26 18:33N 51°55' E 004°12'0 0.0
2015-Mar-26 17:33N 51°55' E 004°12'0 0.0
2015-Mar-26 16:33N 51°55' E 004°12'0 0.0
2015-Mar-26 15:30N 51°55' E 004°12'0 0.0
2015-Mar-26 14:33N 51°55' E 004°12'0 0.0
2015-Mar-26 13:33N 51°55' E 004°12'0 0.0
2015-Mar-26 12:33N 51°55' E 004°12'0 0.0
2015-Mar-26 11:33N 51°55' E 004°12'0 0.0
2015-Mar-26 10:33N 51°55' E 004°12'3 3.4
2015-Mar-26 09:33N 51°58' E 004°08'1110.4
2015-Mar-26 08:33N 51°60' E 003°51'9 8.9
2015-Mar-26 07:29N 52°07' E 003°41'2 1.8
2015-Mar-26 06:22N 52°08' E 003°39'0 0.1
2015-Mar-26 03:22N 52°08' E 003°39'0 0.1
2015-Mar-26 02:28N 52°08' E 003°39'0 0.0
2015-Mar-26 01:28N 52°08' E 003°39'0 0.0
2015-Mar-26 00:31N 52°08' E 003°39'0 0.0
2015-Mar-25 23:31N 52°08' E 003°39'0 0.0
2015-Mar-25 22:33N 52°08' E 003°39'0 0.1
2015-Mar-25 21:31N 52°08' E 003°39'0 0.2
2015-Mar-25 20:31N 52°08' E 003°39'0 0.0
2015-Mar-25 16:19N 52°08' E 003°39'0 0.1
2015-Mar-25 13:28N 52°08' E 003°39'0 0.0
2015-Mar-25 12:19N 52°08' E 003°38'0 0.0
2015-Mar-25 11:25N 52°08' E 003°39'0 0.0
2015-Mar-25 10:31N 52°08' E 003°39'0 0.0
2015-Mar-25 09:16N 52°08' E 003°39'0 0.0
2015-Mar-25 04:15N 52°08' E 003°39'0 0.1
2015-Mar-25 02:22N 52°08' E 003°39'0 0.0
2015-Mar-25 01:34N 52°08' E 003°39'0 0.0
2015-Mar-25 00:31N 52°08' E 003°38'0 0.0
2015-Mar-24 23:31N 52°08' E 003°38'0 0.0
2015-Mar-24 21:16N 52°08' E 003°39'0 0.2
2015-Mar-24 20:09N 52°08' E 003°39'0 0.0
2015-Mar-24 18:28N 52°08' E 003°39'0 0.0
2015-Mar-24 17:13N 52°08' E 003°39'0 0.0
2015-Mar-24 16:31N 52°08' E 003°39'0 0.1
2015-Mar-24 14:06N 52°08' E 003°39'0 0.0
2015-Mar-24 13:34N 52°08' E 003°39'0 0.0
2015-Mar-24 12:22N 52°08' E 003°38'0 0.1
2015-Mar-24 11:28N 52°08' E 003°39'0 0.0
2015-Mar-24 10:25N 52°08' E 003°39'0 0.1
2015-Mar-24 09:31N 52°08' E 003°39'0 0.1
2015-Mar-24 06:25N 52°08' E 003°39'0 0.0
2015-Mar-24 02:07N 52°08' E 003°39'0 0.1
2015-Mar-24 01:31N 52°08' E 003°39'0 0.0
2015-Mar-24 00:30N 52°08' E 003°38'0 0.0
2015-Mar-23 23:31N 52°08' E 003°38'0 0.0
2015-Mar-23 22:34N 52°08' E 003°38'0 0.1
2015-Mar-23 19:28N 52°08' E 003°39'0 0.0
2015-Mar-23 18:34N 52°08' E 003°39'0 0.0
2015-Mar-23 17:07N 52°08' E 003°39'0 0.0
2015-Mar-23 16:04N 52°08' E 003°39'0 0.0
2015-Mar-23 15:31N 52°08' E 003°39'0 0.1
2015-Mar-23 12:31N 52°08' E 003°39'0 0.0
2015-Mar-23 11:24N 52°08' E 003°39'0 0.0
2015-Mar-23 10:25N 52°08' E 003°38'0 0.1
2015-Mar-23 08:31N 52°08' E 003°39'0 0.2
2015-Mar-23 07:31N 52°08' E 003°39'0 0.0
2015-Mar-23 06:31N 52°08' E 003°39'0 0.0
2015-Mar-23 05:19N 52°08' E 003°39'0 0.0
2015-Mar-23 04:28N 52°08' E 003°39'0 0.0
2015-Mar-23 03:19N 52°08' E 003°39'0 0.1
2015-Mar-23 02:07N 52°08' E 003°39'0 0.1
2015-Mar-23 00:25N 52°08' E 003°39'0 0.0
2015-Mar-22 23:34N 52°08' E 003°39'0 0.1
2015-Mar-22 21:28N 52°08' E 003°39'0 0.0
2015-Mar-22 20:34N 52°08' E 003°39'0 0.1
2015-Mar-22 19:19N 52°08' E 003°38'0 0.2
2015-Mar-22 18:22N 52°08' E 003°39'0 0.0
2015-Mar-22 17:25N 52°08' E 003°39'0 0.0
2015-Mar-22 16:28N 52°08' E 003°39'0 0.0
2015-Mar-22 15:25N 52°08' E 003°39'0 0.1
2015-Mar-22 13:07N 52°08' E 003°39'0 0.0
2015-Mar-22 12:28N 52°08' E 003°39'0 0.0
2015-Mar-22 11:19N 52°08' E 003°39'0 0.0
2015-Mar-22 10:25N 52°08' E 003°39'0 0.0
2015-Mar-22 09:34N 52°08' E 003°39'0 0.0
2015-Mar-22 08:31N 52°08' E 003°39'0 0.0
2015-Mar-22 07:31N 52°08' E 003°39'0 0.1
2015-Mar-22 06:16N 52°08' E 003°39'0 0.0
2015-Mar-22 03:31N 52°08' E 003°39'0 0.1
2015-Mar-22 02:19N 52°08' E 003°39'0 0.2
2015-Mar-22 00:31N 52°08' E 003°39'0 0.0
2015-Mar-21 23:34N 52°08' E 003°39'0 0.0
2015-Mar-21 21:13N 52°08' E 003°39'0 0.0
2015-Mar-21 20:16N 52°08' E 003°39'1 1.0
2015-Mar-21 19:33N 52°09' E 003°38'125 8.9
2015-Mar-21 05:33N 54°05' E 004°57'1212.3
2015-Mar-21 04:33N 54°06' E 005°17'1312.9
2015-Mar-21 03:33N 54°08' E 005°39'1413.5
2015-Mar-21 02:30N 54°10' E 006°03'3712.6
2015-Mar-20 23:33N 54°12' E 007°06'1111.3
2015-Mar-20 22:33N 54°12' E 007°25'1110.5
2015-Mar-20 21:33N 54°09' E 007°43'1111.1
2015-Mar-20 20:33N 54°03' E 007°59'11 9.9
2015-Mar-20 19:27N 54°00' E 008°17'1112.6
2015-Mar-20 18:33N 53°58' E 008°35'1313.5
2015-Mar-20 17:33N 53°51' E 008°55'1313.0
2015-Mar-20 16:33N 53°52' E 009°16'1413.7
2015-Mar-20 15:33N 53°41' E 009°30'1111.1
2015-Mar-20 14:33N 53°34' E 009°44'8 7.6
2015-Mar-20 13:33N 53°31' E 009°56'1 1.3
2015-Mar-20 12:33N 53°30' E 009°58'0 0.0
2015-Mar-20 11:33N 53°30' E 009°58'0 0.0
2015-Mar-20 10:33N 53°30' E 009°58'0 0.0
2015-Mar-20 09:33N 53°30' E 009°58'0 0.0
2015-Mar-20 08:33N 53°30' E 009°58'0 0.0
2015-Mar-20 07:33N 53°30' E 009°58'0 0.0
2015-Mar-20 06:32N 53°30' E 009°58'0 0.1
2015-Mar-20 05:32N 53°30' E 009°58'0 0.1
2015-Mar-20 04:33N 53°30' E 009°58'0 0.0
2015-Mar-20 03:33N 53°30' E 009°58'0 0.0
2015-Mar-20 02:33N 53°30' E 009°58'0 0.0
2015-Mar-20 01:33N 53°30' E 009°58'0 0.0
2015-Mar-20 00:33N 53°30' E 009°58'0 0.0
2015-Mar-19 23:33N 53°30' E 009°58'0 0.0
2015-Mar-19 22:33N 53°30' E 009°58'0 0.0
2015-Mar-19 21:33N 53°30' E 009°58'0 0.0
2015-Mar-19 20:33N 53°30' E 009°58'0 0.0
2015-Mar-19 19:33N 53°30' E 009°58'0 0.0
2015-Mar-19 18:33N 53°30' E 009°58'0 0.0
2015-Mar-19 17:33N 53°30' E 009°58'0 0.0
2015-Mar-19 16:33N 53°30' E 009°58'  

Dump ship's entire track history